sensor_id;sensor_type;location;lat;lon;timestamp;P1;durP1;ratioP1;P2;durP2;ratioP2
41943;SDS011;27636;52.610;13.244;2023-09-30T00:00:13;6.13;;;1.67;;
41943;SDS011;27636;52.610;13.244;2023-09-30T00:05:18;5.55;;;1.95;;
41943;SDS011;27636;52.610;13.244;2023-09-30T00:10:25;12.75;;;2.17;;
41943;SDS011;27636;52.610;13.244;2023-09-30T00:15:29;4.75;;;1.50;;
41943;SDS011;27636;52.610;13.244;2023-09-30T00:20:33;7.05;;;2.78;;
41943;SDS011;27636;52.610;13.244;2023-09-30T00:25:37;13.88;;;1.85;;
41943;SDS011;27636;52.610;13.244;2023-09-30T00:30:42;6.50;;;1.80;;
41943;SDS011;27636;52.610;13.244;2023-09-30T00:35:50;4.32;;;1.38;;
41943;SDS011;27636;52.610;13.244;2023-09-30T00:40:54;6.43;;;1.63;;
41943;SDS011;27636;52.610;13.244;2023-09-30T00:46:01;5.25;;;1.98;;
41943;SDS011;27636;52.610;13.244;2023-09-30T00:51:08;4.93;;;1.70;;
41943;SDS011;27636;52.610;13.244;2023-09-30T00:56:12;6.55;;;1.63;;
41943;SDS011;27636;52.610;13.244;2023-09-30T01:01:16;11.83;;;1.70;;
41943;SDS011;27636;52.610;13.244;2023-09-30T01:06:23;8.25;;;1.80;;
41943;SDS011;27636;52.610;13.244;2023-09-30T01:16:31;11.00;;;2.75;;
41943;SDS011;27636;52.610;13.244;2023-09-30T01:21:38;7.60;;;1.95;;
41943;SDS011;27636;52.610;13.244;2023-09-30T01:26:42;3.47;;;1.60;;
41943;SDS011;27636;52.610;13.244;2023-09-30T01:31:46;6.00;;;1.73;;
41943;SDS011;27636;52.610;13.244;2023-09-30T01:36:52;8.07;;;2.80;;
41943;SDS011;27636;52.610;13.244;2023-09-30T01:41:56;6.68;;;1.85;;
41943;SDS011;27636;52.610;13.244;2023-09-30T01:47:00;9.38;;;1.70;;
41943;SDS011;27636;52.610;13.244;2023-09-30T01:52:05;7.53;;;1.90;;
41943;SDS011;27636;52.610;13.244;2023-09-30T01:57:08;8.90;;;1.75;;
41943;SDS011;27636;52.610;13.244;2023-09-30T02:02:12;9.45;;;2.15;;
41943;SDS011;27636;52.610;13.244;2023-09-30T02:07:18;10.23;;;2.55;;
41943;SDS011;27636;52.610;13.244;2023-09-30T02:17:25;5.80;;;1.30;;
41943;SDS011;27636;52.610;13.244;2023-09-30T02:22:31;7.28;;;2.17;;
41943;SDS011;27636;52.610;13.244;2023-09-30T02:27:36;7.85;;;2.35;;
41943;SDS011;27636;52.610;13.244;2023-09-30T02:32:40;6.10;;;2.22;;
41943;SDS011;27636;52.610;13.244;2023-09-30T02:37:45;18.05;;;2.30;;
41943;SDS011;27636;52.610;13.244;2023-09-30T02:42:49;10.30;;;2.28;;
41943;SDS011;27636;52.610;13.244;2023-09-30T02:47:54;4.65;;;1.48;;
41943;SDS011;27636;52.610;13.244;2023-09-30T02:52:59;7.93;;;2.25;;
41943;SDS011;27636;52.610;13.244;2023-09-30T02:58:03;12.73;;;2.58;;
41943;SDS011;27636;52.610;13.244;2023-09-30T03:03:06;8.30;;;2.75;;
41943;SDS011;27636;52.610;13.244;2023-09-30T03:08:12;12.57;;;2.25;;
41943;SDS011;27636;52.610;13.244;2023-09-30T03:13:15;11.55;;;2.38;;
41943;SDS011;27636;52.610;13.244;2023-09-30T03:18:21;7.47;;;2.38;;
41943;SDS011;27636;52.610;13.244;2023-09-30T03:23:30;8.80;;;2.72;;
41943;SDS011;27636;52.610;13.244;2023-09-30T03:28:34;11.75;;;2.45;;
41943;SDS011;27636;52.610;13.244;2023-09-30T03:33:38;10.38;;;2.20;;
41943;SDS011;27636;52.610;13.244;2023-09-30T03:38:43;8.80;;;2.57;;
41943;SDS011;27636;52.610;13.244;2023-09-30T03:43:47;4.68;;;1.83;;
41943;SDS011;27636;52.610;13.244;2023-09-30T03:48:52;20.27;;;3.70;;
41943;SDS011;27636;52.610;13.244;2023-09-30T03:53:57;15.18;;;3.55;;
41943;SDS011;27636;52.610;13.244;2023-09-30T03:59:01;11.68;;;3.30;;
41943;SDS011;27636;52.610;13.244;2023-09-30T04:04:05;8.27;;;2.72;;
41943;SDS011;27636;52.610;13.244;2023-09-30T04:09:11;15.20;;;2.60;;
41943;SDS011;27636;52.610;13.244;2023-09-30T04:14:15;9.65;;;2.63;;
41943;SDS011;27636;52.610;13.244;2023-09-30T04:19:20;12.25;;;2.63;;
41943;SDS011;27636;52.610;13.244;2023-09-30T04:24:25;7.97;;;1.95;;
41943;SDS011;27636;52.610;13.244;2023-09-30T04:29:31;17.35;;;2.42;;
41943;SDS011;27636;52.610;13.244;2023-09-30T04:34:35;9.73;;;3.13;;
41943;SDS011;27636;52.610;13.244;2023-09-30T04:39:40;10.32;;;3.35;;
41943;SDS011;27636;52.610;13.244;2023-09-30T04:44:44;10.73;;;3.03;;
41943;SDS011;27636;52.610;13.244;2023-09-30T04:49:48;7.65;;;2.75;;
41943;SDS011;27636;52.610;13.244;2023-09-30T04:54:53;11.30;;;2.22;;
41943;SDS011;27636;52.610;13.244;2023-09-30T04:59:57;16.30;;;2.83;;
41943;SDS011;27636;52.610;13.244;2023-09-30T05:05:00;9.95;;;2.70;;
41943;SDS011;27636;52.610;13.244;2023-09-30T05:10:06;7.18;;;2.40;;
41943;SDS011;27636;52.610;13.244;2023-09-30T05:15:14;9.35;;;2.47;;
41943;SDS011;27636;52.610;13.244;2023-09-30T05:25:24;17.52;;;3.65;;
41943;SDS011;27636;52.610;13.244;2023-09-30T05:30:29;11.43;;;2.00;;
41943;SDS011;27636;52.610;13.244;2023-09-30T05:35:33;12.40;;;3.65;;
41943;SDS011;27636;52.610;13.244;2023-09-30T05:40:38;9.90;;;2.65;;
41943;SDS011;27636;52.610;13.244;2023-09-30T05:45:42;14.80;;;2.97;;
41943;SDS011;27636;52.610;13.244;2023-09-30T05:50:52;9.15;;;2.78;;
41943;SDS011;27636;52.610;13.244;2023-09-30T05:55:57;19.38;;;4.32;;
41943;SDS011;27636;52.610;13.244;2023-09-30T06:01:07;14.30;;;3.60;;
41943;SDS011;27636;52.610;13.244;2023-09-30T06:06:14;15.02;;;2.85;;
41943;SDS011;27636;52.610;13.244;2023-09-30T06:11:21;18.45;;;3.47;;
41943;SDS011;27636;52.610;13.244;2023-09-30T06:16:28;21.30;;;3.85;;
41943;SDS011;27636;52.610;13.244;2023-09-30T06:21:34;26.25;;;5.32;;
41943;SDS011;27636;52.610;13.244;2023-09-30T06:26:39;14.50;;;4.38;;
41943;SDS011;27636;52.610;13.244;2023-09-30T06:31:43;27.63;;;4.50;;
41943;SDS011;27636;52.610;13.244;2023-09-30T06:36:46;15.63;;;3.80;;
41943;SDS011;27636;52.610;13.244;2023-09-30T06:41:51;18.13;;;3.83;;
41943;SDS011;27636;52.610;13.244;2023-09-30T06:46:55;11.15;;;3.40;;
41943;SDS011;27636;52.610;13.244;2023-09-30T06:51:59;15.48;;;2.75;;
41943;SDS011;27636;52.610;13.244;2023-09-30T06:57:03;23.48;;;4.30;;
41943;SDS011;27636;52.610;13.244;2023-09-30T07:02:07;8.82;;;2.90;;
41943;SDS011;27636;52.610;13.244;2023-09-30T07:07:11;12.40;;;3.67;;
41943;SDS011;27636;52.610;13.244;2023-09-30T07:12:16;9.00;;;2.50;;
41943;SDS011;27636;52.610;13.244;2023-09-30T07:17:19;14.32;;;2.97;;
41943;SDS011;27636;52.610;13.244;2023-09-30T07:22:23;11.13;;;3.28;;
41943;SDS011;27636;52.610;13.244;2023-09-30T07:27:43;14.23;;;2.83;;
41943;SDS011;27636;52.610;13.244;2023-09-30T07:32:47;9.00;;;2.10;;
41943;SDS011;27636;52.610;13.244;2023-09-30T07:37:52;8.48;;;2.30;;
41943;SDS011;27636;52.610;13.244;2023-09-30T07:42:57;14.05;;;2.38;;
41943;SDS011;27636;52.610;13.244;2023-09-30T07:53:08;15.07;;;2.22;;
41943;SDS011;27636;52.610;13.244;2023-09-30T07:58:13;9.20;;;2.47;;
41943;SDS011;27636;52.610;13.244;2023-09-30T08:03:17;13.10;;;2.60;;
41943;SDS011;27636;52.610;13.244;2023-09-30T08:08:21;10.50;;;2.30;;
41943;SDS011;27636;52.610;13.244;2023-09-30T08:13:28;13.38;;;3.10;;
41943;SDS011;27636;52.610;13.244;2023-09-30T08:18:32;10.52;;;2.22;;
41943;SDS011;27636;52.610;13.244;2023-09-30T08:23:36;11.32;;;1.98;;
41943;SDS011;27636;52.610;13.244;2023-09-30T08:28:43;12.30;;;3.65;;
41943;SDS011;27636;52.610;13.244;2023-09-30T08:38:50;14.00;;;2.28;;
41943;SDS011;27636;52.610;13.244;2023-09-30T08:43:55;10.95;;;1.83;;
41943;SDS011;27636;52.610;13.244;2023-09-30T08:49:02;12.60;;;2.40;;
41943;SDS011;27636;52.610;13.244;2023-09-30T08:54:07;16.10;;;2.10;;
41943;SDS011;27636;52.610;13.244;2023-09-30T08:59:12;10.15;;;2.00;;
41943;SDS011;27636;52.610;13.244;2023-09-30T09:04:17;13.45;;;3.58;;
41943;SDS011;27636;52.610;13.244;2023-09-30T09:09:21;14.48;;;1.90;;
41943;SDS011;27636;52.610;13.244;2023-09-30T09:14:39;11.00;;;2.13;;
41943;SDS011;27636;52.610;13.244;2023-09-30T09:19:50;8.30;;;1.90;;
41943;SDS011;27636;52.610;13.244;2023-09-30T09:25:04;5.55;;;1.60;;
41943;SDS011;27636;52.610;13.244;2023-09-30T09:30:15;10.63;;;2.42;;
41943;SDS011;27636;52.610;13.244;2023-09-30T09:35:20;9.07;;;2.45;;
41943;SDS011;27636;52.610;13.244;2023-09-30T09:40:25;10.43;;;2.23;;
41943;SDS011;27636;52.610;13.244;2023-09-30T09:45:32;8.30;;;1.77;;
41943;SDS011;27636;52.610;13.244;2023-09-30T09:50:37;13.77;;;2.80;;
41943;SDS011;27636;52.610;13.244;2023-09-30T09:55:42;5.25;;;2.28;;
41943;SDS011;27636;52.610;13.244;2023-09-30T10:00:48;9.60;;;2.42;;
41943;SDS011;27636;52.610;13.244;2023-09-30T10:05:51;6.68;;;1.50;;
41943;SDS011;27636;52.610;13.244;2023-09-30T10:10:55;8.00;;;2.85;;
41943;SDS011;27636;52.610;13.244;2023-09-30T10:16:02;7.57;;;1.60;;
41943;SDS011;27636;52.610;13.244;2023-09-30T10:21:07;10.77;;;1.55;;
41943;SDS011;27636;52.610;13.244;2023-09-30T10:26:13;5.63;;;1.42;;
41943;SDS011;27636;52.610;13.244;2023-09-30T10:31:22;11.45;;;1.77;;
41943;SDS011;27636;52.610;13.244;2023-09-30T10:36:29;6.97;;;1.58;;
41943;SDS011;27636;52.610;13.244;2023-09-30T10:41:51;8.15;;;1.50;;
41943;SDS011;27636;52.610;13.244;2023-09-30T10:46:56;8.43;;;1.52;;
41943;SDS011;27636;52.610;13.244;2023-09-30T10:52:01;7.93;;;1.80;;
41943;SDS011;27636;52.610;13.244;2023-09-30T10:57:05;8.53;;;1.30;;
41943;SDS011;27636;52.610;13.244;2023-09-30T11:02:19;6.10;;;1.33;;
41943;SDS011;27636;52.610;13.244;2023-09-30T11:07:23;4.72;;;1.17;;
41943;SDS011;27636;52.610;13.244;2023-09-30T11:12:29;10.30;;;1.83;;
41943;SDS011;27636;52.610;13.244;2023-09-30T11:17:34;10.48;;;1.40;;
41943;SDS011;27636;52.610;13.244;2023-09-30T11:32:47;4.55;;;1.17;;
41943;SDS011;27636;52.610;13.244;2023-09-30T11:38:03;6.85;;;1.30;;
41943;SDS011;27636;52.610;13.244;2023-09-30T11:43:06;3.85;;;1.00;;
41943;SDS011;27636;52.610;13.244;2023-09-30T11:48:19;9.60;;;1.42;;
41943;SDS011;27636;52.610;13.244;2023-09-30T11:53:24;7.72;;;1.33;;
41943;SDS011;27636;52.610;13.244;2023-09-30T11:58:28;8.05;;;1.25;;
41943;SDS011;27636;52.610;13.244;2023-09-30T12:03:33;5.93;;;1.57;;
41943;SDS011;27636;52.610;13.244;2023-09-30T12:08:43;6.25;;;1.52;;
41943;SDS011;27636;52.610;13.244;2023-09-30T12:18:53;7.27;;;1.20;;
41943;SDS011;27636;52.610;13.244;2023-09-30T12:23:57;5.78;;;1.30;;
41943;SDS011;27636;52.610;13.244;2023-09-30T12:29:01;4.18;;;1.13;;
41943;SDS011;27636;52.610;13.244;2023-09-30T12:39:11;6.05;;;1.10;;
41943;SDS011;27636;52.610;13.244;2023-09-30T12:44:16;6.20;;;1.13;;
41943;SDS011;27636;52.610;13.244;2023-09-30T12:49:22;5.88;;;1.67;;
41943;SDS011;27636;52.610;13.244;2023-09-30T12:54:25;4.75;;;0.85;;
41943;SDS011;27636;52.610;13.244;2023-09-30T12:59:29;4.93;;;1.00;;
41943;SDS011;27636;52.610;13.244;2023-09-30T13:04:35;5.33;;;1.07;;
41943;SDS011;27636;52.610;13.244;2023-09-30T13:09:39;4.13;;;0.80;;
41943;SDS011;27636;52.610;13.244;2023-09-30T13:14:42;3.07;;;0.77;;
41943;SDS011;27636;52.610;13.244;2023-09-30T13:19:49;6.22;;;0.98;;
41943;SDS011;27636;52.610;13.244;2023-09-30T13:24:53;2.55;;;0.73;;
41943;SDS011;27636;52.610;13.244;2023-09-30T13:29:57;4.23;;;0.90;;
41943;SDS011;27636;52.610;13.244;2023-09-30T13:35:03;2.40;;;0.70;;
41943;SDS011;27636;52.610;13.244;2023-09-30T13:40:09;6.13;;;0.80;;
41943;SDS011;27636;52.610;13.244;2023-09-30T13:45:15;7.38;;;0.65;;
41943;SDS011;27636;52.610;13.244;2023-09-30T13:50:23;3.40;;;1.05;;
41943;SDS011;27636;52.610;13.244;2023-09-30T13:55:28;5.22;;;1.52;;
41943;SDS011;27636;52.610;13.244;2023-09-30T14:00:31;11.77;;;2.30;;
41943;SDS011;27636;52.610;13.244;2023-09-30T14:05:36;5.85;;;1.10;;
41943;SDS011;27636;52.610;13.244;2023-09-30T14:10:41;3.50;;;0.80;;
41943;SDS011;27636;52.610;13.244;2023-09-30T14:15:47;3.70;;;0.95;;
41943;SDS011;27636;52.610;13.244;2023-09-30T14:20:52;8.93;;;1.38;;
41943;SDS011;27636;52.610;13.244;2023-09-30T14:25:56;7.18;;;1.13;;
41943;SDS011;27636;52.610;13.244;2023-09-30T14:31:02;4.13;;;1.00;;
41943;SDS011;27636;52.610;13.244;2023-09-30T14:36:07;8.70;;;1.33;;
41943;SDS011;27636;52.610;13.244;2023-09-30T14:41:11;3.65;;;0.95;;
41943;SDS011;27636;52.610;13.244;2023-09-30T14:46:15;5.33;;;1.40;;
41943;SDS011;27636;52.610;13.244;2023-09-30T14:51:23;6.97;;;1.45;;
41943;SDS011;27636;52.610;13.244;2023-09-30T14:56:27;3.05;;;0.82;;
41943;SDS011;27636;52.610;13.244;2023-09-30T15:01:30;5.78;;;1.10;;
41943;SDS011;27636;52.610;13.244;2023-09-30T15:06:36;5.60;;;1.50;;
41943;SDS011;27636;52.610;13.244;2023-09-30T15:11:40;4.43;;;1.33;;
41943;SDS011;27636;52.610;13.244;2023-09-30T15:16:44;4.78;;;1.08;;
41943;SDS011;27636;52.610;13.244;2023-09-30T15:21:49;1.80;;;0.70;;
41943;SDS011;27636;52.610;13.244;2023-09-30T15:31:56;9.43;;;4.40;;
41943;SDS011;27636;52.610;13.244;2023-09-30T15:37:01;11.65;;;3.95;;
41943;SDS011;27636;52.610;13.244;2023-09-30T15:42:05;10.02;;;4.18;;
41943;SDS011;27636;52.610;13.244;2023-09-30T15:47:09;11.80;;;3.75;;
41943;SDS011;27636;52.610;13.244;2023-09-30T15:52:15;9.13;;;2.95;;
41943;SDS011;27636;52.610;13.244;2023-09-30T15:57:19;7.72;;;2.80;;
41943;SDS011;27636;52.610;13.244;2023-09-30T16:02:22;9.15;;;1.88;;
41943;SDS011;27636;52.610;13.244;2023-09-30T16:07:27;3.20;;;1.50;;
41943;SDS011;27636;52.610;13.244;2023-09-30T16:12:31;3.55;;;1.42;;
41943;SDS011;27636;52.610;13.244;2023-09-30T16:17:35;6.38;;;1.33;;
41943;SDS011;27636;52.610;13.244;2023-09-30T16:22:40;5.28;;;1.55;;
41943;SDS011;27636;52.610;13.244;2023-09-30T16:27:45;5.57;;;1.48;;
41943;SDS011;27636;52.610;13.244;2023-09-30T16:32:49;5.77;;;2.27;;
41943;SDS011;27636;52.610;13.244;2023-09-30T16:37:55;9.10;;;4.15;;
41943;SDS011;27636;52.610;13.244;2023-09-30T16:42:59;12.52;;;5.93;;
41943;SDS011;27636;52.610;13.244;2023-09-30T16:48:03;10.65;;;4.15;;
41943;SDS011;27636;52.610;13.244;2023-09-30T16:53:09;8.13;;;3.42;;
41943;SDS011;27636;52.610;13.244;2023-09-30T16:58:13;7.55;;;2.78;;
41943;SDS011;27636;52.610;13.244;2023-09-30T17:03:17;9.10;;;2.60;;
41943;SDS011;27636;52.610;13.244;2023-09-30T17:08:22;8.90;;;2.67;;
41943;SDS011;27636;52.610;13.244;2023-09-30T17:13:26;9.05;;;3.28;;
41943;SDS011;27636;52.610;13.244;2023-09-30T17:18:30;7.20;;;2.97;;
41943;SDS011;27636;52.610;13.244;2023-09-30T17:23:36;10.80;;;3.60;;
41943;SDS011;27636;52.610;13.244;2023-09-30T17:28:40;7.10;;;2.97;;
41943;SDS011;27636;52.610;13.244;2023-09-30T17:33:43;13.77;;;3.53;;
41943;SDS011;27636;52.610;13.244;2023-09-30T17:38:49;21.75;;;4.60;;
41943;SDS011;27636;52.610;13.244;2023-09-30T17:48:56;18.63;;;5.88;;
41943;SDS011;27636;52.610;13.244;2023-09-30T17:54:01;19.90;;;7.38;;
41943;SDS011;27636;52.610;13.244;2023-09-30T17:59:05;13.43;;;5.25;;
41943;SDS011;27636;52.610;13.244;2023-09-30T18:04:09;20.92;;;8.05;;
41943;SDS011;27636;52.610;13.244;2023-09-30T18:09:15;12.85;;;4.75;;
41943;SDS011;27636;52.610;13.244;2023-09-30T18:14:19;16.85;;;6.53;;
41943;SDS011;27636;52.610;13.244;2023-09-30T18:19:24;19.58;;;6.43;;
41943;SDS011;27636;52.610;13.244;2023-09-30T18:24:29;17.33;;;6.65;;
41943;SDS011;27636;52.610;13.244;2023-09-30T18:29:33;17.40;;;8.00;;
41943;SDS011;27636;52.610;13.244;2023-09-30T18:34:37;16.55;;;7.78;;
41943;SDS011;27636;52.610;13.244;2023-09-30T18:39:42;21.73;;;7.38;;
41943;SDS011;27636;52.610;13.244;2023-09-30T18:44:46;15.30;;;6.57;;
41943;SDS011;27636;52.610;13.244;2023-09-30T18:49:50;14.57;;;5.97;;
41943;SDS011;27636;52.610;13.244;2023-09-30T18:54:55;15.30;;;5.10;;
41943;SDS011;27636;52.610;13.244;2023-09-30T18:59:58;14.57;;;6.13;;
41943;SDS011;27636;52.610;13.244;2023-09-30T19:05:02;16.70;;;5.55;;
41943;SDS011;27636;52.610;13.244;2023-09-30T19:10:08;12.07;;;5.18;;
41943;SDS011;27636;52.610;13.244;2023-09-30T19:15:12;11.85;;;4.30;;
41943;SDS011;27636;52.610;13.244;2023-09-30T19:20:18;7.53;;;3.85;;
41943;SDS011;27636;52.610;13.244;2023-09-30T19:25:24;11.45;;;4.25;;
41943;SDS011;27636;52.610;13.244;2023-09-30T19:30:29;7.28;;;3.85;;
41943;SDS011;27636;52.610;13.244;2023-09-30T19:35:33;11.07;;;4.40;;
41943;SDS011;27636;52.610;13.244;2023-09-30T19:40:38;9.88;;;4.40;;
41943;SDS011;27636;52.610;13.244;2023-09-30T19:45:42;8.02;;;3.50;;
41943;SDS011;27636;52.610;13.244;2023-09-30T19:50:46;8.63;;;4.20;;
41943;SDS011;27636;52.610;13.244;2023-09-30T19:55:53;12.02;;;4.35;;
41943;SDS011;27636;52.610;13.244;2023-09-30T20:06:01;12.82;;;4.03;;
41943;SDS011;27636;52.610;13.244;2023-09-30T20:11:18;13.57;;;4.37;;
41943;SDS011;27636;52.610;13.244;2023-09-30T20:16:23;14.95;;;4.53;;
41943;SDS011;27636;52.610;13.244;2023-09-30T20:21:27;8.45;;;3.83;;
41943;SDS011;27636;52.610;13.244;2023-09-30T20:26:32;9.75;;;4.03;;
41943;SDS011;27636;52.610;13.244;2023-09-30T20:31:38;10.35;;;4.00;;
41943;SDS011;27636;52.610;13.244;2023-09-30T20:36:42;11.38;;;4.15;;
41943;SDS011;27636;52.610;13.244;2023-09-30T20:41:48;10.75;;;4.10;;
41943;SDS011;27636;52.610;13.244;2023-09-30T20:46:53;9.88;;;3.88;;
41943;SDS011;27636;52.610;13.244;2023-09-30T20:51:57;10.73;;;5.47;;
41943;SDS011;27636;52.610;13.244;2023-09-30T20:57:03;9.90;;;4.47;;
41943;SDS011;27636;52.610;13.244;2023-09-30T21:02:07;11.13;;;4.70;;
41943;SDS011;27636;52.610;13.244;2023-09-30T21:07:11;11.32;;;5.03;;
41943;SDS011;27636;52.610;13.244;2023-09-30T21:12:16;10.63;;;4.38;;
41943;SDS011;27636;52.610;13.244;2023-09-30T21:17:20;11.50;;;4.28;;
41943;SDS011;27636;52.610;13.244;2023-09-30T21:22:25;7.30;;;3.80;;
41943;SDS011;27636;52.610;13.244;2023-09-30T21:27:30;14.07;;;4.35;;
41943;SDS011;27636;52.610;13.244;2023-09-30T21:32:34;10.00;;;4.45;;
41943;SDS011;27636;52.610;13.244;2023-09-30T21:37:38;14.57;;;4.80;;
41943;SDS011;27636;52.610;13.244;2023-09-30T21:42:43;10.95;;;4.65;;
41943;SDS011;27636;52.610;13.244;2023-09-30T21:47:46;10.60;;;4.25;;
41943;SDS011;27636;52.610;13.244;2023-09-30T21:52:50;13.68;;;4.40;;
41943;SDS011;27636;52.610;13.244;2023-09-30T21:57:55;8.35;;;4.47;;
41943;SDS011;27636;52.610;13.244;2023-09-30T22:02:59;9.70;;;4.90;;
41943;SDS011;27636;52.610;13.244;2023-09-30T22:08:03;9.20;;;4.45;;
41943;SDS011;27636;52.610;13.244;2023-09-30T22:13:08;11.50;;;5.50;;
41943;SDS011;27636;52.610;13.244;2023-09-30T22:18:12;15.00;;;5.05;;
41943;SDS011;27636;52.610;13.244;2023-09-30T22:23:16;12.95;;;5.70;;
41943;SDS011;27636;52.610;13.244;2023-09-30T22:28:21;13.63;;;5.10;;
41943;SDS011;27636;52.610;13.244;2023-09-30T22:33:25;11.43;;;4.88;;
41943;SDS011;27636;52.610;13.244;2023-09-30T22:38:30;12.98;;;4.28;;
41943;SDS011;27636;52.610;13.244;2023-09-30T22:43:35;9.60;;;4.30;;
41943;SDS011;27636;52.610;13.244;2023-09-30T22:48:39;9.55;;;4.93;;
41943;SDS011;27636;52.610;13.244;2023-09-30T22:53:43;10.20;;;5.50;;
41943;SDS011;27636;52.610;13.244;2023-09-30T22:58:50;10.13;;;4.88;;
41943;SDS011;27636;52.610;13.244;2023-09-30T23:03:54;7.82;;;4.40;;
41943;SDS011;27636;52.610;13.244;2023-09-30T23:08:59;10.55;;;4.60;;
41943;SDS011;27636;52.610;13.244;2023-09-30T23:14:04;11.48;;;4.88;;
41943;SDS011;27636;52.610;13.244;2023-09-30T23:19:09;12.88;;;4.70;;
41943;SDS011;27636;52.610;13.244;2023-09-30T23:24:14;11.02;;;4.40;;
41943;SDS011;27636;52.610;13.244;2023-09-30T23:29:20;11.93;;;4.60;;
41943;SDS011;27636;52.610;13.244;2023-09-30T23:34:24;9.38;;;4.43;;
41943;SDS011;27636;52.610;13.244;2023-09-30T23:39:29;11.27;;;4.35;;
41943;SDS011;27636;52.610;13.244;2023-09-30T23:44:37;8.30;;;4.68;;
41943;SDS011;27636;52.610;13.244;2023-09-30T23:49:41;7.60;;;4.05;;
41943;SDS011;27636;52.610;13.244;2023-09-30T23:54:44;11.63;;;4.60;;
41943;SDS011;27636;52.610;13.244;2023-09-30T23:59:50;8.93;;;3.90;;
